createdAt,value
2023-11-12T00:04:19.245Z,5.90
2023-11-12T00:09:21.026Z,5.94
2023-11-12T00:14:22.821Z,5.94
2023-11-12T00:19:24.952Z,5.93
2023-11-12T00:24:29.010Z,5.98
2023-11-12T00:29:30.690Z,6.08
2023-11-12T00:34:32.458Z,5.99
2023-11-12T00:39:34.282Z,6.04
2023-11-12T00:44:36.858Z,5.99
2023-11-12T00:49:38.598Z,6.01
2023-11-12T00:54:40.299Z,5.83
2023-11-12T00:59:43.108Z,5.80
2023-11-12T01:04:44.895Z,5.80
2023-11-12T01:09:47.480Z,5.94
2023-11-12T01:14:49.240Z,5.83
2023-11-12T01:19:50.995Z,5.89
2023-11-12T01:24:52.850Z,5.86
2023-11-12T01:29:54.647Z,5.90
2023-11-12T01:34:56.344Z,5.93
2023-11-12T01:39:58.054Z,6.00
2023-11-12T01:45:01.210Z,6.03
2023-11-12T01:50:04.993Z,5.99
2023-11-12T01:55:09.475Z,6.09
2023-11-12T02:00:13.117Z,6.06
2023-11-12T02:05:15.100Z,6.11
2023-11-12T02:10:18.053Z,6.18
2023-11-12T02:15:19.876Z,6.19
2023-11-12T02:20:22.716Z,6.18
2023-11-12T02:25:25.088Z,6.13
2023-11-12T02:30:27.470Z,6.20
2023-11-12T02:35:30.982Z,6.24
2023-11-12T02:40:32.687Z,6.19
2023-11-12T02:45:34.409Z,6.25
2023-11-12T02:50:36.808Z,6.32
2023-11-12T02:55:38.629Z,6.32
2023-11-12T03:00:40.438Z,6.32
2023-11-12T03:05:42.227Z,6.28
2023-11-12T03:10:43.980Z,6.33
2023-11-12T03:15:46.364Z,6.33
2023-11-12T03:20:48.202Z,6.35
2023-11-12T03:25:49.939Z,6.35
2023-11-12T03:30:51.738Z,6.34
2023-11-12T03:35:53.514Z,6.43
2023-11-12T03:40:55.322Z,6.41
2023-11-12T03:45:57.007Z,6.41
2023-11-12T03:50:58.710Z,6.46
2023-11-12T03:56:00.508Z,6.40
2023-11-12T04:01:02.279Z,6.39
2023-11-12T04:06:04.259Z,6.38
2023-11-12T04:11:06.054Z,6.43
2023-11-12T04:16:08.117Z,6.36
2023-11-12T04:21:11.614Z,6.34
2023-11-12T04:26:14.655Z,6.32
2023-11-12T04:31:17.414Z,6.36
2023-11-12T04:36:20.035Z,6.42
2023-11-12T04:41:23.554Z,6.46
2023-11-12T04:46:26.170Z,6.44
2023-11-12T04:51:28.134Z,6.49
2023-11-12T04:56:29.940Z,6.47
2023-11-12T05:01:31.763Z,6.47
2023-11-12T05:06:33.972Z,6.36
2023-11-12T05:11:38.132Z,6.44
2023-11-12T05:16:43.038Z,6.46
2023-11-12T05:21:45.585Z,6.37
2023-11-12T05:26:47.333Z,6.38
2023-11-12T05:31:49.271Z,6.43
2023-11-12T05:36:51.132Z,6.48
2023-11-12T05:41:52.863Z,6.42
2023-11-12T05:46:54.561Z,6.48
2023-11-12T05:51:56.290Z,6.41
2023-11-12T05:56:57.964Z,6.44
2023-11-12T06:01:59.869Z,6.40
2023-11-12T06:07:02.371Z,6.34
2023-11-12T06:12:06.540Z,6.34
2023-11-12T06:17:08.520Z,6.36
2023-11-12T06:22:10.363Z,6.37
2023-11-12T06:27:12.208Z,6.35
2023-11-12T06:32:13.942Z,6.40
2023-11-12T06:37:16.615Z,6.42
2023-11-12T06:42:18.336Z,6.41
2023-11-12T06:47:20.239Z,6.43
2023-11-12T06:52:23.167Z,6.49
2023-11-12T06:57:24.890Z,6.55
2023-11-12T07:02:26.685Z,6.57
2023-11-12T07:07:28.890Z,6.61
2023-11-12T07:12:32.074Z,6.73
2023-11-12T07:17:36.737Z,6.85
2023-11-12T07:22:38.685Z,7.04
2023-11-12T07:27:42.084Z,7.08
2023-11-12T07:32:43.975Z,6.77
2023-11-12T07:37:45.762Z,6.56
2023-11-12T07:42:47.492Z,6.65
2023-11-12T07:47:49.386Z,6.52
2023-11-12T07:52:51.083Z,6.79
2023-11-12T07:57:52.784Z,7.44
2023-11-12T08:02:54.547Z,7.97
2023-11-12T08:07:56.268Z,8.22
2023-11-12T08:12:59.350Z,8.12
2023-11-12T08:18:01.230Z,8.07
2023-11-12T08:23:03.700Z,8.24
2023-11-12T08:28:05.815Z,7.73
2023-11-12T08:33:07.617Z,7.74
2023-11-12T08:38:09.604Z,7.76
2023-11-12T08:43:11.553Z,7.47
2023-11-12T08:48:13.281Z,7.70
2023-11-12T08:53:14.988Z,8.13
2023-11-12T08:58:17.095Z,8.57
2023-11-12T09:03:19.244Z,9.07
2023-11-12T09:08:23.139Z,9.55
2023-11-12T09:13:24.835Z,9.60
2023-11-12T09:18:28.678Z,10.21
2023-11-12T09:23:30.619Z,9.80
2023-11-12T09:28:32.337Z,9.89
2023-11-12T09:33:34.130Z,10.13
2023-11-12T09:38:42.993Z,10.84
2023-11-12T09:43:46.652Z,12.33
2023-11-12T09:48:48.775Z,13.20
2023-11-12T09:53:53.534Z,13.62
2023-11-12T09:58:56.044Z,12.82
2023-11-12T10:03:57.926Z,11.79
2023-11-12T10:09:01.588Z,12.33
2023-11-12T10:14:13.838Z,13.02
2023-11-12T10:19:16.522Z,12.64
2023-11-12T10:24:19.114Z,10.53
2023-11-12T10:29:22.795Z,10.13
2023-11-12T10:34:28.511Z,9.94
2023-11-12T10:39:43.197Z,10.35
2023-11-12T10:44:46.040Z,13.00
2023-11-12T10:49:48.494Z,17.08
2023-11-12T10:54:52.294Z,16.07
2023-11-12T10:59:56.173Z,11.49
2023-11-12T11:04:58.522Z,10.20
2023-11-12T11:10:02.245Z,9.64
2023-11-12T11:15:41.693Z,9.32
2023-11-12T11:21:13.216Z,9.46
2023-11-12T11:26:40.747Z,9.17
2023-11-12T11:31:48.684Z,9.23
2023-11-12T11:37:00.339Z,9.39
2023-11-12T11:42:07.487Z,9.17
2023-11-12T11:47:16.846Z,9.06
2023-11-12T11:52:21.721Z,9.14
2023-11-12T11:57:28.203Z,9.09
2023-11-12T12:02:41.754Z,9.07
2023-11-12T12:07:47.277Z,8.98
2023-11-12T12:12:49.266Z,9.28
2023-11-12T12:17:51.054Z,9.49
2023-11-12T12:22:54.085Z,9.24
2023-11-12T12:27:55.837Z,9.33
2023-11-12T12:32:59.087Z,9.15
2023-11-12T12:38:08.160Z,9.18
2023-11-12T12:43:11.817Z,9.01
2023-11-12T12:48:15.733Z,9.11
2023-11-12T12:53:23.670Z,9.07
2023-11-12T12:58:39.122Z,9.26
2023-11-12T13:03:42.535Z,9.31
2023-11-12T13:08:48.829Z,9.24
2023-11-12T13:13:51.539Z,9.16
2023-11-12T13:18:53.275Z,9.29
2023-11-12T13:23:54.999Z,9.44
2023-11-12T13:28:56.689Z,9.43
2023-11-12T13:33:59.964Z,9.68
2023-11-12T13:39:01.904Z,9.40
2023-11-12T13:44:04.202Z,9.33
2023-11-12T13:49:07.182Z,8.98
2023-11-12T13:54:11.635Z,9.15
2023-11-12T13:59:13.757Z,9.01
2023-11-12T14:04:15.548Z,9.14
2023-11-12T14:09:18.803Z,8.99
2023-11-12T14:14:21.996Z,8.96
2023-11-12T14:19:25.497Z,8.94
2023-11-12T14:24:27.313Z,8.94
2023-11-12T14:29:31.181Z,8.93
2023-11-12T14:34:33.928Z,8.81
2023-11-12T14:39:35.746Z,8.82
2023-11-12T14:44:38.467Z,8.69
2023-11-12T14:49:40.208Z,8.61
2023-11-12T14:54:47.736Z,8.64
2023-11-12T14:59:49.543Z,8.49
2023-11-12T15:04:51.406Z,8.51
2023-11-12T15:09:53.143Z,8.25
2023-11-12T15:14:55.613Z,8.22
2023-11-12T15:19:58.235Z,8.18
2023-11-12T15:24:59.968Z,8.12
2023-11-12T15:30:01.730Z,7.92
2023-11-12T15:35:05.736Z,7.87
2023-11-12T15:40:23.484Z,7.93
2023-11-12T15:45:25.789Z,7.90
2023-11-12T15:50:31.396Z,8.03
2023-11-12T15:55:33.279Z,8.02
2023-11-12T16:00:35.053Z,7.80
2023-11-12T16:05:37.773Z,7.92
2023-11-12T16:10:39.674Z,7.88
2023-11-12T16:15:42.876Z,7.92
2023-11-12T16:20:44.617Z,7.98
2023-11-12T16:25:46.320Z,7.63
2023-11-12T16:30:49.230Z,7.69
2023-11-12T16:35:50.967Z,7.67
2023-11-12T16:40:52.731Z,7.54
2023-11-12T16:45:54.898Z,7.60
2023-11-12T16:50:56.721Z,7.50
2023-11-12T16:55:59.236Z,7.56
2023-11-12T17:01:02.620Z,7.56
2023-11-12T17:06:04.658Z,7.68
2023-11-12T17:11:06.883Z,7.54
2023-11-12T17:16:08.700Z,7.63
2023-11-12T17:21:10.492Z,7.69
2023-11-12T17:26:12.194Z,7.64
2023-11-12T17:31:15.498Z,7.54
2023-11-12T17:36:17.208Z,7.49
2023-11-12T17:41:21.540Z,7.39
2023-11-12T17:46:23.327Z,7.27
2023-11-12T17:51:26.539Z,7.43
2023-11-12T17:56:28.713Z,6.99
2023-11-12T18:01:30.437Z,7.00
2023-11-12T18:06:34.213Z,7.03
2023-11-12T18:11:36.268Z,7.05
2023-11-12T18:16:38.035Z,7.04
2023-11-12T18:21:42.570Z,7.05
2023-11-12T18:26:44.709Z,6.95
2023-11-12T18:31:47.192Z,7.12
2023-11-12T18:36:48.974Z,7.03
2023-11-12T18:41:50.686Z,7.03
2023-11-12T18:46:52.424Z,6.98
2023-11-12T18:51:54.165Z,6.93
2023-11-12T18:56:55.930Z,7.03
2023-11-12T19:01:57.672Z,7.07
2023-11-12T19:06:59.698Z,7.20
2023-11-12T19:12:01.425Z,7.04
2023-11-12T19:17:04.190Z,7.23
2023-11-12T19:22:07.224Z,7.12
2023-11-12T19:27:09.042Z,7.16
2023-11-12T19:32:10.977Z,7.15
2023-11-12T19:37:14.011Z,7.19
2023-11-12T19:42:15.901Z,7.05
2023-11-12T19:47:17.640Z,7.05
2023-11-12T19:52:19.730Z,7.01
2023-11-12T19:57:21.493Z,7.03
2023-11-12T20:02:23.281Z,7.10
2023-11-12T20:07:25.030Z,7.19
2023-11-12T20:12:26.976Z,7.20
2023-11-12T20:17:29.963Z,7.22
2023-11-12T20:22:33.201Z,7.12
2023-11-12T20:27:36.406Z,7.16
2023-11-12T20:32:39.523Z,7.19
2023-11-12T20:37:41.393Z,7.17
2023-11-12T20:42:44.253Z,7.10
2023-11-12T20:47:52.212Z,7.11
2023-11-12T20:52:54.363Z,7.12
2023-11-12T20:57:56.126Z,7.02
2023-11-12T21:02:57.853Z,7.08
2023-11-12T21:07:59.696Z,7.06
2023-11-12T21:13:01.482Z,7.10
2023-11-12T21:18:04.233Z,6.97
2023-11-12T21:23:05.995Z,6.95
2023-11-12T21:28:11.309Z,6.99
2023-11-12T21:33:15.077Z,7.01
2023-11-12T21:38:16.828Z,7.03
2023-11-12T21:43:18.608Z,7.00
2023-11-12T21:48:23.130Z,7.06
2023-11-12T21:53:24.880Z,7.06
2023-11-12T21:58:26.604Z,7.06
2023-11-12T22:03:28.755Z,7.10
2023-11-12T22:08:30.560Z,7.11
2023-11-12T22:13:33.248Z,7.15
2023-11-12T22:18:36.752Z,7.15
2023-11-12T22:23:39.885Z,7.12
2023-11-12T22:28:42.835Z,7.11
2023-11-12T22:33:44.878Z,7.08
2023-11-12T22:38:47.014Z,7.09
2023-11-12T22:43:48.774Z,7.08
2023-11-12T22:48:51.320Z,7.05
2023-11-12T22:53:53.496Z,7.08
2023-11-12T22:58:55.253Z,7.07
2023-11-12T23:03:57.004Z,7.12
2023-11-12T23:09:06.744Z,7.09
2023-11-12T23:14:08.432Z,6.97
2023-11-12T23:19:10.645Z,6.89
2023-11-12T23:24:12.906Z,6.78
2023-11-12T23:29:15.194Z,6.84
2023-11-12T23:34:16.885Z,6.72
2023-11-12T23:39:19.184Z,6.70
2023-11-12T23:44:20.913Z,6.71
2023-11-12T23:49:22.620Z,6.73
2023-11-12T23:54:24.336Z,6.78
2023-11-12T23:59:26.291Z,6.78
